Time;durP1;ratioP1;P1;durP2;ratioP2;P2;SDS_P1;SDS_P2;PMS_P1;PMS_P2;Temp;Humidity;BMP_temperature;BMP_pressure;BME280_temperature;BME280_humidity;BME280_pressure;Samples;Min_cycle;Max_cycle;Signal;HPM_P1;HPM_P2
2023/05/18 00:03:09;;;;;;;4.70;1.10;;;12.70;99.90;;;10.98;100.00;100132.03;10338740;28;98716;-83
2023/05/18 00:08:12;;;;;;;1.80;1.00;;;12.70;99.90;;;11.01;100.00;100136.16;10312678;28;96556;-84
2023/05/18 00:13:15;;;;;;;1.80;1.00;;;12.70;99.90;;;10.94;100.00;100136.84;10301427;28;97512;-84
2023/05/18 00:18:22;;;;;;;5.10;1.03;;;12.60;99.90;;;10.90;100.00;100135.53;10330782;28;98403;-83
2023/05/18 00:23:30;;;;;;;4.07;1.20;;;12.60;99.90;;;10.85;100.00;100139.69;10357027;28;97207;-84
2023/05/18 00:28:33;;;;;;;2.83;1.03;;;12.50;99.90;;;10.86;100.00;100144.88;10339312;28;98557;-83
2023/05/18 00:33:36;;;;;;;3.37;0.90;;;12.50;99.90;;;10.82;100.00;100132.91;10336469;28;97381;-83
2023/05/18 00:38:40;;;;;;;6.33;0.90;;;12.50;99.90;;;10.85;100.00;100143.19;10323500;28;96507;-84
2023/05/18 00:43:43;;;;;;;1.07;0.77;;;12.50;99.90;;;10.87;100.00;100145.69;10340325;28;96542;-84
2023/05/18 00:48:48;;;;;;;2.00;0.90;;;12.50;99.90;;;10.80;100.00;100137.56;10326858;28;96726;-84
2023/05/18 00:53:54;;;;;;;2.30;0.80;;;12.50;99.90;;;10.83;100.00;100147.84;10333941;28;96556;-84
2023/05/18 00:58:57;;;;;;;1.50;0.80;;;12.50;99.90;;;10.80;100.00;100150.88;10354682;28;97106;-84
2023/05/18 01:04:01;;;;;;;3.30;0.90;;;12.50;99.90;;;10.79;100.00;100151.84;10331121;28;96710;-84
2023/05/18 01:09:09;;;;;;;1.30;0.83;;;12.40;99.90;;;10.76;100.00;100157.50;10319183;28;96630;-84
2023/05/18 01:14:37;;;;;;;2.50;0.93;;;12.40;99.90;;;10.77;100.00;100167.13;10355847;28;96646;-85
2023/05/18 01:20:18;;;;;;;2.17;1.10;;;12.40;99.90;;;10.78;100.00;100174.09;10345017;28;96788;-85
2023/05/18 01:25:32;;;;;;;1.43;1.00;;;12.40;99.90;;;10.74;100.00;100169.31;10326203;28;96644;-86
2023/05/18 01:30:41;;;;;;;2.40;0.70;;;12.40;99.90;;;10.75;100.00;100173.63;10322783;28;99649;-85
2023/05/18 01:35:46;;;;;;;1.67;1.27;;;12.40;99.90;;;10.70;100.00;100167.00;10360032;28;98241;-83
2023/05/18 01:41:25;;;;;;;1.40;0.50;;;12.40;99.90;;;10.75;100.00;100181.59;10362032;28;97478;-82
2023/05/18 01:47:09;;;;;;;1.40;0.70;;;12.40;99.90;;;10.75;100.00;100189.59;10334699;28;98422;-83
2023/05/18 01:52:32;;;;;;;2.93;1.07;;;12.40;99.90;;;10.70;100.00;100187.44;10320271;28;96846;-88
2023/05/18 01:57:40;;;;;;;1.17;0.63;;;12.40;99.90;;;10.73;100.00;100205.69;10320157;28;96613;-86
2023/05/18 02:02:44;;;;;;;1.40;0.67;;;12.40;99.90;;;10.71;100.00;100194.41;10340780;28;97027;-87
2023/05/18 02:07:47;;;;;;;2.70;0.70;;;12.40;99.90;;;10.67;100.00;100199.19;10327499;28;96810;-88
2023/05/18 02:12:52;;;;;;;0.80;0.63;;;12.30;99.90;;;10.66;100.00;100202.03;10357401;28;98378;-87
2023/05/18 02:17:56;;;;;;;3.40;0.80;;;12.30;99.90;;;10.65;100.00;100200.38;10339743;28;97366;-88
2023/05/18 02:23:00;;;;;;;2.43;0.60;;;12.30;99.90;;;10.62;100.00;100204.22;10362313;28;96583;-86
2023/05/18 02:28:03;;;;;;;0.80;0.53;;;12.30;99.90;;;10.59;100.00;100196.56;10361281;28;96638;-87
2023/05/18 02:33:07;;;;;;;1.13;0.53;;;12.30;99.90;;;10.61;100.00;100217.66;10324745;28;96667;-87
2023/05/18 02:38:11;;;;;;;3.33;0.60;;;12.30;99.90;;;10.60;100.00;100208.03;10343600;28;97504;-87
2023/05/18 02:43:14;;;;;;;0.70;0.40;;;12.30;99.90;;;10.59;100.00;100217.81;10322616;28;97005;-87
2023/05/18 02:48:17;;;;;;;0.70;0.47;;;12.30;99.90;;;10.52;100.00;100206.22;10326053;28;96841;-87
2023/05/18 02:53:21;;;;;;;0.63;0.40;;;12.30;99.90;;;10.53;100.00;100220.31;10326362;28;97666;-87
2023/05/18 02:58:24;;;;;;;0.63;0.40;;;12.20;99.90;;;10.51;100.00;100215.19;10342541;28;96567;-87
2023/05/18 03:03:27;;;;;;;1.90;0.70;;;12.20;99.90;;;10.45;100.00;100203.41;10354833;28;96689;-85
2023/05/18 03:08:30;;;;;;;1.77;0.50;;;12.20;99.90;;;10.43;100.00;100212.50;10355663;28;96642;-84
2023/05/18 03:13:33;;;;;;;0.87;0.47;;;12.10;99.90;;;10.43;100.00;100217.81;10313329;28;96742;-85
2023/05/18 03:18:36;;;;;;;1.00;0.50;;;12.10;99.90;;;10.42;100.00;100219.66;10311572;28;98156;-84
2023/05/18 03:23:40;;;;;;;1.27;0.43;;;12.10;99.90;;;10.42;100.00;100222.31;10341108;28;96676;-86
2023/05/18 03:28:43;;;;;;;0.40;0.30;;;12.10;99.90;;;10.30;100.00;100213.00;10339872;28;96650;-85
2023/05/18 03:33:46;;;;;;;0.50;0.40;;;12.10;99.90;;;10.33;100.00;100225.97;10321781;28;96684;-86
2023/05/18 03:38:49;;;;;;;1.83;0.33;;;12.10;99.90;;;10.31;100.00;100229.78;10327553;28;96479;-86
2023/05/18 03:43:52;;;;;;;1.00;0.70;;;12.00;99.90;;;10.32;100.00;100242.09;10338791;28;96442;-86
2023/05/18 03:48:55;;;;;;;1.57;0.77;;;12.00;99.90;;;10.33;100.00;100243.75;10315036;28;97464;-83
2023/05/18 03:53:58;;;;;;;2.60;0.60;;;12.00;99.90;;;10.36;100.00;100244.22;10319097;28;96793;-83
2023/05/18 03:59:02;;;;;;;1.03;0.60;;;12.00;99.90;;;10.32;100.00;100248.22;10303877;28;98185;-83
2023/05/18 04:04:06;;;;;;;2.33;0.50;;;12.00;99.90;;;10.35;100.00;100250.53;10332340;28;96715;-84
2023/05/18 04:09:09;;;;;;;2.57;0.70;;;12.10;99.90;;;10.36;100.00;100256.69;10339473;28;96770;-83
2023/05/18 04:14:13;;;;;;;1.87;0.60;;;12.10;99.90;;;10.37;100.00;100261.81;10324274;28;98415;-83
2023/05/18 04:19:17;;;;;;;0.57;0.40;;;12.00;99.90;;;10.36;100.00;100262.00;10330777;28;97729;-83
2023/05/18 04:24:21;;;;;;;1.90;0.50;;;12.00;99.90;;;10.33;100.00;100260.50;10332495;28;96651;-84
2023/05/18 04:29:24;;;;;;;1.00;0.50;;;12.00;99.90;;;10.33;100.00;100263.16;10321756;28;96648;-85
2023/05/18 04:34:28;;;;;;;1.10;0.50;;;12.10;99.90;;;10.35;100.00;100274.44;10337713;28;98128;-84
2023/05/18 04:39:33;;;;;;;1.30;0.40;;;12.10;99.90;;;10.37;100.00;100279.59;10337889;28;96652;-84
2023/05/18 04:44:37;;;;;;;0.40;0.33;;;12.10;99.90;;;10.34;100.00;100274.63;10336293;28;96770;-84
2023/05/18 04:49:40;;;;;;;1.37;0.40;;;12.10;99.90;;;10.32;100.00;100274.78;10352038;28;97330;-85
2023/05/18 04:54:44;;;;;;;0.93;0.60;;;12.10;99.90;;;10.37;100.00;100276.94;10340096;28;96748;-84
2023/05/18 04:59:47;;;;;;;1.87;0.70;;;12.10;99.90;;;10.38;100.00;100287.41;10329012;28;96638;-85
2023/05/18 05:04:50;;;;;;;1.33;0.70;;;12.10;99.90;;;10.38;100.00;100294.56;10338142;28;96694;-85
2023/05/18 05:09:53;;;;;;;1.47;0.70;;;12.10;99.90;;;10.38;100.00;100294.56;10355915;28;96689;-85
2023/05/18 05:14:56;;;;;;;1.43;0.73;;;12.10;99.90;;;10.33;100.00;100289.72;10337532;28;96845;-84
2023/05/18 05:19:59;;;;;;;0.60;0.40;;;12.10;99.90;;;10.34;100.00;100301.19;10343736;28;98046;-85
2023/05/18 05:25:03;;;;;;;0.97;0.60;;;12.00;99.90;;;10.37;100.00;100304.31;10345303;28;96746;-84
2023/05/18 05:30:08;;;;;;;0.80;0.47;;;12.00;99.90;;;10.35;100.00;100305.50;10318505;28;96749;-85
2023/05/18 05:35:11;;;;;;;0.97;0.50;;;12.10;99.90;;;10.36;100.00;100313.28;10344231;28;96608;-85
2023/05/18 05:40:15;;;;;;;1.90;0.60;;;12.00;99.90;;;10.35;100.00;100311.63;10353078;28;96597;-85
2023/05/18 05:45:18;;;;;;;0.67;0.40;;;12.10;99.90;;;10.38;100.00;100316.63;10324038;28;96803;-85
2023/05/18 05:50:21;;;;;;;2.20;0.87;;;12.10;99.90;;;10.42;100.00;100317.94;10333147;28;96698;-85
2023/05/18 05:55:25;;;;;;;1.10;0.47;;;12.10;99.90;;;10.44;100.00;100321.28;10340886;28;96825;-85
2023/05/18 06:00:28;;;;;;;0.90;0.60;;;12.20;99.90;;;10.50;100.00;100327.78;10328608;28;96736;-86
2023/05/18 06:05:31;;;;;;;1.50;0.70;;;12.20;99.90;;;10.53;100.00;100326.59;10344639;28;96684;-85
2023/05/18 06:10:34;;;;;;;0.73;0.30;;;12.20;99.90;;;10.55;100.00;100338.72;10332003;28;96690;-87
2023/05/18 06:15:38;;;;;;;2.03;0.50;;;12.30;99.90;;;10.57;100.00;100343.91;10309384;28;96711;-87
2023/05/18 06:20:41;;;;;;;2.37;0.57;;;12.30;99.90;;;10.59;100.00;100344.56;10335486;28;97386;-86
2023/05/18 06:25:44;;;;;;;1.13;0.77;;;12.30;99.90;;;10.67;100.00;100352.53;10318243;28;96790;-86
2023/05/18 06:30:47;;;;;;;0.50;0.37;;;12.40;99.90;;;10.66;100.00;100359.66;10330634;28;98535;-86
2023/05/18 06:35:50;;;;;;;0.97;0.70;;;12.40;99.90;;;10.65;100.00;100359.84;10315342;28;97547;-86
2023/05/18 06:40:53;;;;;;;0.93;0.50;;;12.40;99.90;;;10.67;100.00;100363.16;10340296;28;96841;-86
2023/05/18 06:45:56;;;;;;;0.87;0.50;;;12.40;99.90;;;10.68;100.00;100359.53;10332999;28;96829;-86
2023/05/18 06:50:59;;;;;;;1.10;0.40;;;12.40;99.90;;;10.76;100.00;100377.31;10295285;28;96845;-86
2023/05/18 06:56:03;;;;;;;0.70;0.30;;;12.50;99.90;;;10.80;100.00;100371.50;10293478;28;98401;-88
2023/05/18 07:01:06;;;;;;;0.70;0.30;;;12.50;99.90;;;10.85;100.00;100378.94;10295936;28;96747;-89
2023/05/18 07:06:10;;;;;;;0.50;0.30;;;12.50;99.90;;;10.86;100.00;100378.81;10318136;28;96898;-84
2023/05/18 07:11:13;;;;;;;1.20;0.40;;;12.60;99.90;;;10.92;100.00;100383.47;10301219;28;96605;-86
2023/05/18 07:16:16;;;;;;;0.83;0.50;;;12.60;99.90;;;10.98;100.00;100387.28;10314405;28;96709;-86
2023/05/18 07:21:19;;;;;;;1.53;0.37;;;12.70;99.90;;;10.98;100.00;100384.63;10331920;28;96732;-86
2023/05/18 07:26:22;;;;;;;1.07;0.40;;;12.70;99.90;;;10.99;100.00;100389.78;10299339;28;97900;-88
2023/05/18 07:31:26;;;;;;;1.53;0.40;;;12.70;99.90;;;11.00;100.00;100398.59;10298798;28;97451;-89
2023/05/18 07:36:29;;;;;;;0.50;0.40;;;12.70;99.90;;;11.01;100.00;100407.38;10314400;28;97440;-87
2023/05/18 07:41:33;;;;;;;1.93;0.57;;;12.70;99.90;;;11.05;100.00;100412.22;10331869;28;96875;-90
2023/05/18 07:46:36;;;;;;;2.30;0.50;;;12.70;99.90;;;11.10;100.00;100409.06;10326614;28;96883;-86
2023/05/18 07:51:41;;;;;;;0.80;0.30;;;12.80;99.90;;;11.12;100.00;100415.03;10318208;28;97646;-89
2023/05/18 07:56:44;;;;;;;2.67;0.77;;;12.80;99.90;;;11.15;100.00;100410.19;10343224;28;97059;-92
2023/05/18 08:01:47;;;;;;;0.20;0.20;;;12.90;99.90;;;11.25;100.00;100420.69;10359529;28;96750;-92
2023/05/18 08:06:53;;;;;;;1.03;0.37;;;13.00;99.90;;;11.27;100.00;100418.69;10359663;28;96981;-93
2023/05/18 08:11:57;;;;;;;0.90;0.50;;;13.00;99.90;;;11.35;100.00;100426.69;10348030;28;96698;-92
2023/05/18 08:17:02;;;;;;;3.37;0.30;;;13.10;99.90;;;11.34;100.00;100425.03;10318882;28;96620;-91
2023/05/18 08:22:05;;;;;;;1.20;0.40;;;13.10;99.90;;;11.35;100.00;100426.69;10334471;28;97851;-89
2023/05/18 08:27:10;;;;;;;1.40;0.50;;;13.10;99.90;;;11.41;100.00;100431.34;10337107;28;97121;-92
2023/05/18 08:32:13;;;;;;;11.60;4.97;;;13.20;99.90;;;11.47;100.00;100430.66;10353013;28;96792;-89
2023/05/18 08:37:17;;;;;;;2.93;0.70;;;13.20;99.90;;;11.50;100.00;100430.31;10360448;28;96559;-95
2023/05/18 08:42:38;;;;;;;6.17;0.80;;;13.30;99.90;;;11.44;100.00;100430.16;10350710;28;96621;-94
2023/05/18 08:47:56;;;;;;;1.13;0.50;;;13.20;99.90;;;11.57;100.00;100430.47;10362129;28;96652;-91
2023/05/18 08:53:05;;;;;;;2.13;0.50;;;13.30;99.90;;;11.64;100.00;100431.47;10352515;28;96476;-92
2023/05/18 08:58:11;;;;;;;0.83;0.53;;;13.40;99.90;;;11.70;100.00;100422.81;10331343;28;96641;-91
2023/05/18 09:03:14;;;;;;;2.50;0.53;;;13.50;99.90;;;11.74;100.00;100425.94;10360902;28;96981;-92
2023/05/18 09:08:18;;;;;;;1.37;1.00;;;13.50;99.90;;;11.80;100.00;100422.59;10326969;28;96581;-96
2023/05/18 09:13:30;;;;;;;4.00;0.57;;;13.50;99.90;;;11.84;100.00;100408.00;10345858;28;96657;-95
2023/05/18 09:18:33;;;;;;;6.20;0.80;;;13.60;99.90;;;12.00;100.00;100407.94;10354031;28;98255;-94
2023/05/18 09:23:39;;;;;;;0.47;0.40;;;13.80;99.90;;;12.16;100.00;100416.88;10350561;28;96557;-91
2023/05/18 09:28:44;;;;;;;7.67;3.73;;;13.90;99.90;;;12.23;100.00;100415.16;10321569;28;96504;-91
2023/05/18 09:33:51;;;;;;;1.40;0.80;;;14.00;99.90;;;12.31;100.00;100431.97;10339231;28;96616;-95
2023/05/18 09:38:54;;;;;;;0.83;0.40;;;14.00;99.90;;;12.33;100.00;100426.44;10334801;28;96591;-92
2023/05/18 09:43:58;;;;;;;0.80;0.50;;;14.10;99.90;;;12.30;100.00;100432.13;10348119;28;96836;-91
2023/05/18 09:49:03;;;;;;;1.07;0.40;;;14.00;99.90;;;12.31;100.00;100439.94;10344917;28;96558;-89
2023/05/18 09:54:09;;;;;;;0.50;0.40;;;14.00;99.90;;;12.31;100.00;100444.47;10345991;28;96526;-95
2023/05/18 09:59:15;;;;;;;0.60;0.50;;;14.00;99.90;;;12.27;100.00;100443.13;10347282;28;96539;-89
2023/05/18 10:04:19;;;;;;;3.65;0.50;;;14.00;99.90;;;12.31;100.00;100437.28;10344077;28;96747;-89
2023/05/18 10:09:22;;;;;;;3.17;1.17;;;14.00;99.90;;;12.34;100.00;100433.44;10345347;28;96626;-88
2023/05/18 10:14:29;;;;;;;1.37;0.60;;;14.10;99.90;;;12.38;100.00;100434.75;10329206;28;97257;-89
2023/05/18 10:19:37;;;;;;;9.80;1.40;;;14.10;99.90;;;12.41;100.00;100428.25;10361489;28;96603;-93
2023/05/18 10:24:49;;;;;;;0.70;0.50;;;14.10;99.90;;;12.39;100.00;100436.41;10346827;28;97178;-89
2023/05/18 10:29:54;;;;;;;1.17;0.77;;;14.20;99.90;;;12.42;100.00;100438.75;10314611;28;96525;-88
2023/05/18 10:34:59;;;;;;;3.60;0.67;;;14.20;99.90;;;12.51;100.00;100432.34;10342879;28;97059;-89
2023/05/18 10:40:06;;;;;;;6.27;0.80;;;14.30;99.90;;;12.57;100.00;100434.31;10327563;28;96429;-88
2023/05/18 10:45:09;;;;;;;0.90;0.60;;;14.30;99.90;;;12.62;100.00;100432.97;10342216;28;96845;-87
2023/05/18 10:50:15;;;;;;;8.02;1.00;;;14.40;99.90;;;12.75;100.00;100439.38;10376388;28;96498;-89
2023/05/18 10:55:19;;;;;;;1.35;0.60;;;14.50;99.90;;;12.77;100.00;100433.88;10327432;28;98332;-88
2023/05/18 11:00:22;;;;;;;6.68;0.68;;;14.50;99.90;;;12.84;100.00;100426.84;10342181;28;96604;-92
2023/05/18 11:05:26;;;;;;;1.05;0.40;;;14.60;99.90;;;12.86;100.00;100432.81;10339843;28;97741;-87
2023/05/18 11:10:45;;;;;;;20.08;1.33;;;14.70;99.90;;;12.92;100.00;100436.63;10339523;28;96791;-88
2023/05/18 11:15:58;;;;;;;7.75;1.65;;;14.70;99.90;;;12.92;100.00;100434.78;10328010;28;96784;-88
2023/05/18 11:21:23;;;;;;;15.98;1.60;;;14.70;99.90;;;12.94;100.00;100438.09;10359068;28;96612;-87
2023/05/18 11:26:28;;;;;;;0.70;0.40;;;14.70;99.90;;;12.95;100.00;100442.41;10329475;28;96783;-87
2023/05/18 11:31:46;;;;;;;3.33;0.68;;;14.70;99.90;;;12.92;100.00;100441.97;10325329;28;97060;-89
2023/05/18 11:36:55;;;;;;;1.77;1.02;;;14.70;99.90;;;12.95;100.00;100449.59;10358694;28;96616;-89
2023/05/18 11:42:01;;;;;;;1.38;1.00;;;14.70;99.90;;;12.94;100.00;100448.75;10340788;28;97123;-87
2023/05/18 11:47:10;;;;;;;0.88;0.60;;;14.70;99.90;;;12.95;100.00;100453.09;10324605;28;96612;-87
2023/05/18 11:52:22;;;;;;;1.98;0.73;;;14.70;99.90;;;13.04;100.00;100457.38;10341980;28;96451;-87
2023/05/18 11:57:33;;;;;;;1.50;0.70;;;14.70;99.90;;;13.08;100.00;100455.19;10339804;28;96743;-86
2023/05/18 12:02:37;;;;;;;51.40;5.45;;;14.80;99.90;;;13.07;100.00;100462.38;10325282;28;96799;-86
2023/05/18 12:07:41;;;;;;;1.38;0.90;;;14.80;99.90;;;13.04;100.00;100451.22;10340595;28;96707;-87
2023/05/18 12:12:50;;;;;;;4.28;0.75;;;14.80;99.90;;;13.12;100.00;100467.97;10340785;28;96501;-88
2023/05/18 12:17:53;;;;;;;3.45;1.60;;;14.80;99.90;;;13.09;100.00;100457.66;10355093;28;96612;-87
2023/05/18 12:22:57;;;;;;;6.85;2.67;;;14.80;99.90;;;13.09;100.00;100460.34;10339968;28;96597;-87
2023/05/18 12:28:00;;;;;;;3.25;1.30;;;14.80;99.90;;;13.18;100.00;100471.78;10338226;28;98482;-88
2023/05/18 12:33:05;;;;;;;1.30;0.80;;;14.90;99.90;;;13.19;100.00;100464.59;10338713;28;97227;-88
2023/05/18 12:38:08;;;;;;;1.77;0.80;;;14.90;99.90;;;13.19;100.00;100457.41;10321788;28;96695;-88
2023/05/18 12:43:12;;;;;;;1.65;1.08;;;14.90;99.90;;;13.23;100.00;100457.94;10354849;28;96584;-88
2023/05/18 12:48:15;;;;;;;3.22;2.00;;;14.90;99.90;;;13.27;100.00;100457.41;10345541;28;96478;-89
2023/05/18 12:53:18;;;;;;;3.03;2.15;;;15.00;99.90;;;13.34;100.00;100458.34;10299241;28;96542;-88
2023/05/18 12:58:21;;;;;;;6.45;4.28;;;15.10;99.90;;;13.36;100.00;100452.81;10331268;28;96820;-86
2023/05/18 13:03:24;;;;;;;1.65;1.20;;;15.10;99.90;;;13.38;100.00;100448.97;10341346;28;97244;-88
2023/05/18 13:08:27;;;;;;;2.10;1.27;;;15.10;99.90;;;13.45;100.00;100465.09;10355822;28;98479;-88
2023/05/18 13:13:31;;;;;;;1.83;1.23;;;15.10;99.90;;;13.43;100.00;100456.41;10338274;28;97513;-86
2023/05/18 13:18:34;;;;;;;4.70;2.30;;;15.20;99.90;;;13.48;100.00;100462.06;10355166;28;96623;-87
2023/05/18 13:23:38;;;;;;;4.25;0.90;;;15.20;99.90;;;13.47;100.00;100460.41;10356137;28;96713;-87
2023/05/18 13:28:41;;;;;;;1.08;0.70;;;15.20;99.90;;;13.48;100.00;100458.56;10358072;28;96654;-87
2023/05/18 13:33:45;;;;;;;5.22;0.80;;;15.20;99.90;;;13.54;100.00;100453.31;10329532;28;96877;-87
2023/05/18 13:38:48;;;;;;;0.98;0.60;;;15.20;99.90;;;13.61;100.00;100462.28;10328097;28;96636;-87
2023/05/18 13:43:51;;;;;;;9.38;4.80;;;15.30;99.90;;;13.58;100.00;100461.81;10344186;28;97434;-88
2023/05/18 13:48:55;;;;;;;10.70;2.40;;;15.30;99.90;;;13.60;100.00;100462.44;10361667;28;96682;-88
2023/05/18 13:53:58;;;;;;;16.08;2.65;;;15.30;99.90;;;13.61;100.00;100456.94;10345169;28;96660;-88
2023/05/18 13:59:02;;;;;;;6.50;3.17;;;15.30;99.90;;;13.55;100.00;100460.31;10318400;28;97276;-87
2023/05/18 14:04:05;;;;;;;5.55;1.25;;;15.30;99.90;;;13.50;100.00;100462.72;10356894;28;96477;-87
2023/05/18 14:09:08;;;;;;;27.20;3.33;;;15.30;99.90;;;13.43;100.00;100466.28;10345362;28;96572;-90
2023/05/18 14:14:11;;;;;;;4.57;1.10;;;15.20;99.90;;;13.40;100.00;100470.13;10339928;28;97247;-90
2023/05/18 14:19:14;;;;;;;2.92;1.70;;;15.20;99.90;;;13.38;100.00;100480.19;10341651;28;96724;-89
2023/05/18 14:24:18;;;;;;;6.00;2.55;;;15.10;99.90;;;13.36;100.00;100476.84;10354986;28;97543;-88
2023/05/18 14:29:21;;;;;;;5.78;3.88;;;15.10;99.90;;;13.32;100.00;100480.91;10289639;28;96601;-88
2023/05/18 14:34:25;;;;;;;19.30;1.90;;;15.10;99.90;;;13.31;100.00;100479.22;10320382;28;96701;-89
2023/05/18 14:39:28;;;;;;;11.05;2.58;;;15.10;99.90;;;13.26;100.00;100476.28;10334220;28;96941;-87
2023/05/18 14:44:31;;;;;;;5.30;1.02;;;15.10;99.90;;;13.27;100.00;100485.94;10329952;28;96689;-87
2023/05/18 14:49:34;;;;;;;22.95;3.28;;;15.00;99.90;;;13.20;100.00;100484.97;10321671;28;98022;-89
2023/05/18 14:54:39;;;;;;;4.10;0.80;;;15.00;99.90;;;13.21;100.00;100487.47;10343006;28;96610;-92
2023/05/18 14:59:42;;;;;;;9.80;1.27;;;15.00;99.90;;;13.11;100.00;100490.34;10341962;28;98479;-91
2023/05/18 15:04:45;;;;;;;8.48;1.10;;;14.90;99.90;;;13.13;100.00;100484.81;10341347;28;96580;-88
2023/05/18 15:09:48;;;;;;;13.05;1.35;;;14.90;99.90;;;13.19;100.00;100478.75;10343356;28;96581;-88
2023/05/18 15:14:52;;;;;;;4.53;1.75;;;15.00;99.90;;;13.25;100.00;100485.25;10345398;28;97037;-89
2023/05/18 15:19:55;;;;;;;16.00;1.92;;;15.00;99.90;;;13.34;100.00;100489.53;10343037;28;96426;-89
2023/05/18 15:25:00;;;;;;;22.30;2.45;;;15.10;99.90;;;13.30;100.00;100488.22;10326303;28;97831;-88
2023/05/18 15:30:10;;;;;;;6.20;1.13;;;15.10;99.90;;;13.28;100.00;100495.59;10312361;28;98122;-90
2023/05/18 15:35:15;;;;;;;9.40;1.17;;;15.10;99.90;;;13.20;100.00;100492.97;10323357;28;96704;-90
2023/05/18 15:40:18;;;;;;;5.20;1.02;;;15.00;99.90;;;13.13;100.00;100501.69;10318599;28;96554;-90
2023/05/18 15:45:22;;;;;;;8.80;0.90;;;15.00;99.90;;;13.07;100.00;100491.72;10298651;28;96985;-89
2023/05/18 15:50:26;;;;;;;8.65;0.77;;;14.90;99.90;;;13.06;100.00;100490.03;10325942;28;96915;-88
2023/05/18 15:55:30;;;;;;;7.07;1.17;;;14.90;99.90;;;13.07;100.00;100499.72;10318823;28;96729;-91
2023/05/18 16:00:33;;;;;;;7.35;0.90;;;14.90;99.90;;;13.05;100.00;100491.03;10302378;28;96591;-91
2023/05/18 16:05:37;;;;;;;2.38;0.80;;;14.90;99.90;;;13.03;100.00;100498.41;10335144;28;96773;-90
2023/05/18 16:10:40;;;;;;;16.70;2.25;;;14.90;99.90;;;13.03;100.00;100503.75;10358569;28;96540;-90
2023/05/18 16:15:43;;;;;;;21.20;2.00;;;14.90;99.90;;;13.06;100.00;100499.88;10343033;28;96702;-89
2023/05/18 16:20:46;;;;;;;20.02;4.03;;;14.90;99.90;;;13.11;100.00;100498.34;10339191;28;97863;-89
2023/05/18 16:25:49;;;;;;;0.73;0.50;;;14.90;99.90;;;13.16;100.00;100497.81;10317894;28;97163;-90
2023/05/18 16:30:52;;;;;;;3.20;1.20;;;15.00;99.90;;;13.25;100.00;100495.94;10322673;28;96670;-89
2023/05/18 16:35:57;;;;;;;4.18;1.25;;;15.00;99.90;;;13.29;100.00;100500.75;10298698;28;97180;-89
2023/05/18 16:41:04;;;;;;;0.80;0.47;;;15.10;99.90;;;13.37;100.00;100505.19;10337654;28;96740;-88
2023/05/18 16:46:07;;;;;;;3.78;0.60;;;15.20;99.90;;;13.37;100.00;100503.38;10355248;28;96568;-89
2023/05/18 16:51:11;;;;;;;11.70;1.35;;;15.20;99.90;;;13.37;100.00;100503.38;10306608;28;96805;-89
2023/05/18 16:56:14;;;;;;;30.00;2.97;;;15.20;99.90;;;13.38;100.00;100509.53;10316404;28;96753;-89
2023/05/18 17:01:18;;;;;;;11.07;1.60;;;15.20;99.90;;;13.34;100.00;100508.22;10305429;28;96773;-89
2023/05/18 17:06:28;;;;;;;19.95;2.50;;;15.20;99.90;;;13.32;100.00;100507.59;10341315;28;96728;-89
2023/05/18 17:11:31;;;;;;;2.63;0.70;;;15.10;99.90;;;13.28;100.00;100517.78;10358353;28;97495;-89
2023/05/18 17:16:38;;;;;;;1.58;0.80;;;15.10;99.90;;;13.24;100.00;100515.63;10343987;28;96839;-88
2023/05/18 17:21:42;;;;;;;18.90;2.17;;;15.00;99.90;;;13.16;100.00;100516.50;10316715;28;97009;-88
2023/05/18 17:26:45;;;;;;;9.60;1.23;;;15.00;99.90;;;13.12;100.00;100521.34;10314461;28;96846;-88
2023/05/18 17:31:48;;;;;;;10.05;1.58;;;14.90;99.90;;;13.06;100.00;100526.56;10342534;28;96834;-89
2023/05/18 17:36:52;;;;;;;36.17;3.77;;;14.90;99.90;;;13.05;100.00;100520.38;10361338;28;98657;-88
2023/05/18 17:41:56;;;;;;;1.77;1.00;;;14.80;99.90;;;12.99;100.00;100521.09;10345331;28;98054;-88
2023/05/18 17:47:00;;;;;;;1.40;0.70;;;14.80;99.90;;;12.97;100.00;100517.78;10345018;28;96667;-88
2023/05/18 17:52:04;;;;;;;1.77;1.20;;;14.80;99.90;;;12.95;100.00;100538.44;10358574;28;96502;-88
2023/05/18 17:57:07;;;;;;;22.00;1.83;;;14.70;99.90;;;12.95;100.00;100533.09;10309925;28;96385;-89
2023/05/18 18:02:12;;;;;;;9.98;2.17;;;14.70;99.90;;;12.93;100.00;100535.13;10358062;28;96655;-88
2023/05/18 18:07:16;;;;;;;25.15;3.42;;;14.70;99.90;;;12.89;100.00;100527.66;10346121;28;96530;-88
2023/05/18 18:12:19;;;;;;;2.35;1.60;;;14.70;99.90;;;12.86;100.00;100521.66;10322850;28;96626;-89
2023/05/18 18:17:23;;;;;;;14.73;3.22;;;14.70;99.90;;;12.84;100.00;100528.19;10344259;28;96527;-89
2023/05/18 18:22:26;;;;;;;4.38;2.45;;;14.60;99.90;;;12.86;100.00;100528.84;10327641;28;96659;-87
2023/05/18 18:27:29;;;;;;;5.25;3.40;;;14.60;99.90;;;12.81;100.00;100526.69;10349261;28;96665;-87
2023/05/18 18:32:32;;;;;;;46.72;7.30;;;14.60;99.90;;;12.81;100.00;100541.84;10364853;28;98215;-87
2023/05/18 18:37:35;;;;;;;19.13;4.93;;;14.50;99.90;;;12.80;100.00;100540.19;10367259;28;97382;-88
2023/05/18 18:42:38;;;;;;;5.15;3.40;;;14.50;99.90;;;12.79;100.00;100551.88;10337636;28;98129;-88
2023/05/18 18:47:41;;;;;;;9.47;6.43;;;14.50;99.90;;;12.77;100.00;100561.88;10342663;28;96726;-88
2023/05/18 18:52:45;;;;;;;12.30;9.45;;;14.50;99.90;;;12.80;100.00;100566.88;10342860;28;98340;-88
2023/05/18 18:57:48;;;;;;;11.60;8.90;;;14.50;99.90;;;12.81;100.00;100569.34;10325407;28;96688;-88
2023/05/18 19:02:52;;;;;;;89.83;9.10;;;14.50;99.90;;;12.80;100.00;100567.69;10341933;28;97012;-88
2023/05/18 19:07:55;;;;;;;94.90;10.73;;;14.50;99.90;;;12.81;100.00;100574.69;10358286;28;96591;-88
2023/05/18 19:12:58;;;;;;;13.70;6.25;;;14.50;99.90;;;12.78;100.00;100575.06;10358432;28;97218;-88
2023/05/18 19:18:02;;;;;;;10.45;6.95;;;14.50;99.90;;;12.78;100.00;100575.06;10341385;28;96638;-87
2023/05/18 19:23:06;;;;;;;56.10;11.82;;;14.60;99.90;;;12.81;100.00;100590.69;10342369;28;96532;-89
2023/05/18 19:28:09;;;;;;;8.52;5.65;;;14.50;99.90;;;12.75;100.00;100590.56;10327212;28;96780;-88
2023/05/18 19:33:15;;;;;;;4.72;3.55;;;14.50;99.90;;;12.79;100.00;100602.56;10326845;28;96626;-87
2023/05/18 19:38:18;;;;;;;38.10;5.03;;;14.50;99.90;;;12.78;100.00;100606.22;10340927;28;96705;-88
2023/05/18 19:43:21;;;;;;;3.77;2.60;;;14.50;99.90;;;12.77;100.00;100615.19;10357354;28;96948;-87
2023/05/18 19:48:24;;;;;;;4.45;2.70;;;14.50;99.90;;;12.78;100.00;100619.56;10355822;28;98213;-88
2023/05/18 19:53:29;;;;;;;7.15;2.67;;;14.50;99.90;;;12.80;100.00;100625.53;10340417;28;96630;-87
2023/05/18 19:58:32;;;;;;;14.02;3.60;;;14.50;99.90;;;12.82;100.00;100637.69;10356601;28;96529;-87
2023/05/18 20:03:37;;;;;;;7.07;3.10;;;14.50;99.90;;;12.79;100.00;100635.38;10354307;28;97626;-87
2023/05/18 20:08:44;;;;;;;4.40;3.10;;;14.50;99.90;;;12.82;100.00;100644.84;10342437;28;96569;-87
2023/05/18 20:13:47;;;;;;;51.22;6.47;;;14.50;99.90;;;12.81;100.00;100643.19;10354344;28;96650;-87
2023/05/18 20:18:50;;;;;;;3.80;2.63;;;14.50;99.90;;;12.80;100.00;100650.38;10357175;28;96738;-86
2023/05/18 20:23:53;;;;;;;5.23;3.30;;;14.50;99.90;;;12.78;100.00;100647.06;10316821;28;96452;-87
2023/05/18 20:28:56;;;;;;;27.75;3.28;;;14.50;99.90;;;12.81;100.00;100654.69;10307625;28;97362;-87
2023/05/18 20:33:59;;;;;;;14.27;2.80;;;14.50;99.90;;;12.78;100.00;100648.91;10321538;28;96813;-87
2023/05/18 20:39:02;;;;;;;3.42;2.22;;;14.50;99.90;;;12.78;100.00;100662.22;10337468;28;96769;-86